sensor_id;sensor_type;location;lat;lon;timestamp;temperature;humidity
1135;DHT22;556;53.550;10.048;2022-07-30T00:01:11;23.10;47.10
1135;DHT22;556;53.550;10.048;2022-07-30T00:03:38;23.10;47.20
1135;DHT22;556;53.550;10.048;2022-07-30T00:06:05;23.10;47.30
1135;DHT22;556;53.550;10.048;2022-07-30T00:08:34;23.10;47.30
1135;DHT22;556;53.550;10.048;2022-07-30T00:11:01;23.10;47.40
1135;DHT22;556;53.550;10.048;2022-07-30T00:13:28;23.10;47.40
1135;DHT22;556;53.550;10.048;2022-07-30T00:15:55;23.10;47.40
1135;DHT22;556;53.550;10.048;2022-07-30T00:18:23;23.10;47.50
1135;DHT22;556;53.550;10.048;2022-07-30T00:20:50;23.00;47.50
1135;DHT22;556;53.550;10.048;2022-07-30T00:23:17;23.10;47.60
1135;DHT22;556;53.550;10.048;2022-07-30T00:25:45;23.00;47.50
1135;DHT22;556;53.550;10.048;2022-07-30T00:28:12;23.00;47.50
1135;DHT22;556;53.550;10.048;2022-07-30T00:30:39;23.00;47.50
1135;DHT22;556;53.550;10.048;2022-07-30T00:33:07;23.00;47.60
1135;DHT22;556;53.550;10.048;2022-07-30T00:35:34;22.90;47.70
1135;DHT22;556;53.550;10.048;2022-07-30T00:38:01;22.90;47.70
1135;DHT22;556;53.550;10.048;2022-07-30T00:40:28;22.80;47.90
1135;DHT22;556;53.550;10.048;2022-07-30T00:42:56;22.70;47.90
1135;DHT22;556;53.550;10.048;2022-07-30T00:45:23;22.60;47.90
1135;DHT22;556;53.550;10.048;2022-07-30T00:47:52;22.60;48.10
1135;DHT22;556;53.550;10.048;2022-07-30T00:50:19;22.50;48.10
1135;DHT22;556;53.550;10.048;2022-07-30T00:52:47;22.50;48.20
1135;DHT22;556;53.550;10.048;2022-07-30T00:55:14;22.50;48.20
1135;DHT22;556;53.550;10.048;2022-07-30T00:57:42;22.60;48.30
1135;DHT22;556;53.550;10.048;2022-07-30T01:00:14;22.60;48.30
1135;DHT22;556;53.550;10.048;2022-07-30T01:02:41;22.50;48.30
1135;DHT22;556;53.550;10.048;2022-07-30T01:05:09;22.60;48.30
1135;DHT22;556;53.550;10.048;2022-07-30T01:07:37;22.60;48.30
1135;DHT22;556;53.550;10.048;2022-07-30T01:10:05;22.50;48.30
1135;DHT22;556;53.550;10.048;2022-07-30T01:12:33;22.50;48.40
1135;DHT22;556;53.550;10.048;2022-07-30T01:15:02;22.50;48.50
1135;DHT22;556;53.550;10.048;2022-07-30T01:17:31;22.50;48.60
1135;DHT22;556;53.550;10.048;2022-07-30T01:20:02;22.50;48.50
1135;DHT22;556;53.550;10.048;2022-07-30T01:22:38;22.50;48.70
1135;DHT22;556;53.550;10.048;2022-07-30T01:25:15;22.50;48.70
1135;DHT22;556;53.550;10.048;2022-07-30T01:27:47;22.50;48.60
1135;DHT22;556;53.550;10.048;2022-07-30T01:30:19;22.60;48.70
1135;DHT22;556;53.550;10.048;2022-07-30T01:32:48;22.60;48.70
1135;DHT22;556;53.550;10.048;2022-07-30T01:35:17;22.50;48.50
1135;DHT22;556;53.550;10.048;2022-07-30T01:37:46;22.50;48.70
1135;DHT22;556;53.550;10.048;2022-07-30T01:40:16;22.50;48.70
1135;DHT22;556;53.550;10.048;2022-07-30T01:42:48;22.50;48.80
1135;DHT22;556;53.550;10.048;2022-07-30T01:45:18;22.50;48.90
1135;DHT22;556;53.550;10.048;2022-07-30T01:47:46;22.40;48.90
1135;DHT22;556;53.550;10.048;2022-07-30T01:50:14;22.40;48.90
1135;DHT22;556;53.550;10.048;2022-07-30T01:52:43;22.40;49.00
1135;DHT22;556;53.550;10.048;2022-07-30T01:55:13;22.40;49.10
1135;DHT22;556;53.550;10.048;2022-07-30T01:57:42;22.30;49.10
1135;DHT22;556;53.550;10.048;2022-07-30T02:00:13;22.30;49.10
1135;DHT22;556;53.550;10.048;2022-07-30T02:02:46;22.30;49.20
1135;DHT22;556;53.550;10.048;2022-07-30T02:05:14;22.30;49.70
1135;DHT22;556;53.550;10.048;2022-07-30T02:07:47;22.30;49.20
1135;DHT22;556;53.550;10.048;2022-07-30T02:10:20;22.20;49.30
1135;DHT22;556;53.550;10.048;2022-07-30T02:12:52;22.20;49.30
1135;DHT22;556;53.550;10.048;2022-07-30T02:15:26;22.20;49.30
1135;DHT22;556;53.550;10.048;2022-07-30T02:17:59;22.20;49.30
1135;DHT22;556;53.550;10.048;2022-07-30T02:20:29;22.20;49.40
1135;DHT22;556;53.550;10.048;2022-07-30T02:23:00;22.20;49.50
1135;DHT22;556;53.550;10.048;2022-07-30T02:25:28;22.20;49.50
1135;DHT22;556;53.550;10.048;2022-07-30T02:28:01;22.20;49.50
1135;DHT22;556;53.550;10.048;2022-07-30T02:30:33;22.20;49.50
1135;DHT22;556;53.550;10.048;2022-07-30T02:33:08;22.20;49.50
1135;DHT22;556;53.550;10.048;2022-07-30T02:35:43;22.20;49.50
1135;DHT22;556;53.550;10.048;2022-07-30T02:38:12;22.20;50.10
1135;DHT22;556;53.550;10.048;2022-07-30T02:40:42;22.20;49.50
1135;DHT22;556;53.550;10.048;2022-07-30T02:43:13;22.20;49.50
1135;DHT22;556;53.550;10.048;2022-07-30T02:45:43;22.30;49.60
1135;DHT22;556;53.550;10.048;2022-07-30T02:48:13;22.30;49.50
1135;DHT22;556;53.550;10.048;2022-07-30T02:50:41;22.30;49.10
1135;DHT22;556;53.550;10.048;2022-07-30T02:53:10;22.30;49.50
1135;DHT22;556;53.550;10.048;2022-07-30T02:55:40;22.30;49.50
1135;DHT22;556;53.550;10.048;2022-07-30T02:58:09;22.40;49.60
1135;DHT22;556;53.550;10.048;2022-07-30T03:00:37;22.30;49.50
1135;DHT22;556;53.550;10.048;2022-07-30T03:03:06;22.30;49.60
1135;DHT22;556;53.550;10.048;2022-07-30T03:05:37;22.30;49.60
1135;DHT22;556;53.550;10.048;2022-07-30T03:08:05;22.30;49.60
1135;DHT22;556;53.550;10.048;2022-07-30T03:10:34;22.30;49.60
1135;DHT22;556;53.550;10.048;2022-07-30T03:13:04;22.30;49.30
1135;DHT22;556;53.550;10.048;2022-07-30T03:15:33;22.30;49.70
1135;DHT22;556;53.550;10.048;2022-07-30T03:18:06;22.20;49.70
1135;DHT22;556;53.550;10.048;2022-07-30T03:20:34;22.20;49.80
1135;DHT22;556;53.550;10.048;2022-07-30T03:23:03;22.20;49.80
1135;DHT22;556;53.550;10.048;2022-07-30T03:25:31;22.20;49.90
1135;DHT22;556;53.550;10.048;2022-07-30T03:28:01;22.10;49.80
1135;DHT22;556;53.550;10.048;2022-07-30T03:30:28;22.10;49.80
1135;DHT22;556;53.550;10.048;2022-07-30T03:32:57;22.10;49.80
1135;DHT22;556;53.550;10.048;2022-07-30T03:35:26;22.10;49.80
1135;DHT22;556;53.550;10.048;2022-07-30T03:37:54;22.10;49.90
1135;DHT22;556;53.550;10.048;2022-07-30T03:40:22;22.10;49.90
1135;DHT22;556;53.550;10.048;2022-07-30T03:42:50;22.10;49.90
1135;DHT22;556;53.550;10.048;2022-07-30T03:45:21;22.10;49.90
1135;DHT22;556;53.550;10.048;2022-07-30T03:50:18;22.00;49.50
1135;DHT22;556;53.550;10.048;2022-07-30T03:52:47;22.00;49.90
1135;DHT22;556;53.550;10.048;2022-07-30T03:55:16;21.90;49.50
1135;DHT22;556;53.550;10.048;2022-07-30T03:57:49;21.90;50.00
1135;DHT22;556;53.550;10.048;2022-07-30T04:00:22;21.90;49.40
1135;DHT22;556;53.550;10.048;2022-07-30T04:02:52;21.90;49.90
1135;DHT22;556;53.550;10.048;2022-07-30T04:05:44;21.90;49.90
1135;DHT22;556;53.550;10.048;2022-07-30T04:08:13;21.90;49.90
1135;DHT22;556;53.550;10.048;2022-07-30T04:10:41;22.00;50.00
1135;DHT22;556;53.550;10.048;2022-07-30T04:13:11;22.00;49.90
1135;DHT22;556;53.550;10.048;2022-07-30T04:15:45;22.00;49.90
1135;DHT22;556;53.550;10.048;2022-07-30T04:18:14;22.10;49.90
1135;DHT22;556;53.550;10.048;2022-07-30T04:20:43;22.10;49.90
1135;DHT22;556;53.550;10.048;2022-07-30T04:23:14;22.10;49.90
1135;DHT22;556;53.550;10.048;2022-07-30T04:25:45;22.10;49.90
1135;DHT22;556;53.550;10.048;2022-07-30T04:28:13;22.10;49.80
1135;DHT22;556;53.550;10.048;2022-07-30T04:30:41;22.10;49.80
1135;DHT22;556;53.550;10.048;2022-07-30T04:33:08;22.10;49.80
1135;DHT22;556;53.550;10.048;2022-07-30T04:36:05;22.10;49.80
1135;DHT22;556;53.550;10.048;2022-07-30T04:38:35;22.10;49.90
1135;DHT22;556;53.550;10.048;2022-07-30T04:41:03;22.10;49.90
1135;DHT22;556;53.550;10.048;2022-07-30T04:43:53;22.10;49.90
1135;DHT22;556;53.550;10.048;2022-07-30T04:46:20;22.00;49.80
1135;DHT22;556;53.550;10.048;2022-07-30T04:48:48;22.10;49.90
1135;DHT22;556;53.550;10.048;2022-07-30T04:51:19;22.00;49.80
1135;DHT22;556;53.550;10.048;2022-07-30T04:53:49;22.00;49.80
1135;DHT22;556;53.550;10.048;2022-07-30T04:56:20;22.00;49.80
1135;DHT22;556;53.550;10.048;2022-07-30T04:58:48;22.00;49.90
1135;DHT22;556;53.550;10.048;2022-07-30T05:01:20;22.00;49.90
1135;DHT22;556;53.550;10.048;2022-07-30T05:03:49;22.00;49.30
1135;DHT22;556;53.550;10.048;2022-07-30T05:06:19;22.00;49.80
1135;DHT22;556;53.550;10.048;2022-07-30T05:08:49;22.00;49.80
1135;DHT22;556;53.550;10.048;2022-07-30T05:11:16;22.00;49.80
1135;DHT22;556;53.550;10.048;2022-07-30T05:13:44;22.10;49.80
1135;DHT22;556;53.550;10.048;2022-07-30T05:16:15;21.90;49.10
1135;DHT22;556;53.550;10.048;2022-07-30T05:18:43;22.10;49.70
1135;DHT22;556;53.550;10.048;2022-07-30T05:21:10;22.10;49.70
1135;DHT22;556;53.550;10.048;2022-07-30T05:23:48;22.20;49.80
1135;DHT22;556;53.550;10.048;2022-07-30T05:26:20;22.10;49.70
1135;DHT22;556;53.550;10.048;2022-07-30T05:28:51;22.10;49.60
1135;DHT22;556;53.550;10.048;2022-07-30T05:31:22;22.20;49.60
1135;DHT22;556;53.550;10.048;2022-07-30T05:33:57;22.20;49.70
1135;DHT22;556;53.550;10.048;2022-07-30T05:36:26;22.20;49.70
1135;DHT22;556;53.550;10.048;2022-07-30T05:38:55;22.20;49.70
1135;DHT22;556;53.550;10.048;2022-07-30T05:41:33;22.20;49.60
1135;DHT22;556;53.550;10.048;2022-07-30T05:44:04;22.20;49.60
1135;DHT22;556;53.550;10.048;2022-07-30T05:46:32;22.30;49.60
1135;DHT22;556;53.550;10.048;2022-07-30T05:49:01;22.30;49.60
1135;DHT22;556;53.550;10.048;2022-07-30T05:51:28;22.40;49.60
1135;DHT22;556;53.550;10.048;2022-07-30T05:53:57;22.40;49.50
1135;DHT22;556;53.550;10.048;2022-07-30T05:56:50;22.50;49.50
1135;DHT22;556;53.550;10.048;2022-07-30T05:59:27;22.50;49.30
1135;DHT22;556;53.550;10.048;2022-07-30T06:02:10;22.60;48.90
1135;DHT22;556;53.550;10.048;2022-07-30T06:05:08;22.70;48.90
1135;DHT22;556;53.550;10.048;2022-07-30T06:07:35;22.70;48.70
1135;DHT22;556;53.550;10.048;2022-07-30T06:10:06;22.70;49.10
1135;DHT22;556;53.550;10.048;2022-07-30T06:12:34;22.80;49.20
1135;DHT22;556;53.550;10.048;2022-07-30T06:15:01;22.80;48.60
1135;DHT22;556;53.550;10.048;2022-07-30T06:17:33;22.90;49.10
1135;DHT22;556;53.550;10.048;2022-07-30T06:20:25;22.90;49.00
1135;DHT22;556;53.550;10.048;2022-07-30T06:23:09;23.00;48.90
1135;DHT22;556;53.550;10.048;2022-07-30T06:25:56;23.10;48.80
1135;DHT22;556;53.550;10.048;2022-07-30T06:28:24;23.20;48.80
1135;DHT22;556;53.550;10.048;2022-07-30T06:30:51;23.30;48.80
1135;DHT22;556;53.550;10.048;2022-07-30T06:33:20;23.30;48.70
1135;DHT22;556;53.550;10.048;2022-07-30T06:35:48;23.30;48.70
1135;DHT22;556;53.550;10.048;2022-07-30T06:38:18;23.40;48.60
1135;DHT22;556;53.550;10.048;2022-07-30T06:40:54;23.50;48.60
1135;DHT22;556;53.550;10.048;2022-07-30T06:43:34;23.60;48.40
1135;DHT22;556;53.550;10.048;2022-07-30T06:46:26;23.60;48.30
1135;DHT22;556;53.550;10.048;2022-07-30T06:48:53;23.60;48.20
1135;DHT22;556;53.550;10.048;2022-07-30T06:51:20;23.70;48.30
1135;DHT22;556;53.550;10.048;2022-07-30T06:53:47;23.80;48.30
1135;DHT22;556;53.550;10.048;2022-07-30T06:56:14;23.80;48.20
1135;DHT22;556;53.550;10.048;2022-07-30T06:58:57;23.80;48.20
1135;DHT22;556;53.550;10.048;2022-07-30T07:01:43;23.90;48.10
1135;DHT22;556;53.550;10.048;2022-07-30T07:04:11;24.00;48.10
1135;DHT22;556;53.550;10.048;2022-07-30T07:06:39;24.10;47.60
1135;DHT22;556;53.550;10.048;2022-07-30T07:09:07;24.20;48.00
1135;DHT22;556;53.550;10.048;2022-07-30T07:11:47;24.30;47.80
1135;DHT22;556;53.550;10.048;2022-07-30T07:14:20;24.40;47.70
1135;DHT22;556;53.550;10.048;2022-07-30T07:16:48;24.50;47.70
1135;DHT22;556;53.550;10.048;2022-07-30T07:19:33;24.50;47.60
1135;DHT22;556;53.550;10.048;2022-07-30T07:22:00;24.70;47.20
1135;DHT22;556;53.550;10.048;2022-07-30T07:24:28;24.70;47.60
1135;DHT22;556;53.550;10.048;2022-07-30T07:27:06;24.70;47.50
1135;DHT22;556;53.550;10.048;2022-07-30T07:29:35;24.90;47.40
1135;DHT22;556;53.550;10.048;2022-07-30T07:32:02;25.00;47.10
1135;DHT22;556;53.550;10.048;2022-07-30T07:34:29;25.00;47.10
1135;DHT22;556;53.550;10.048;2022-07-30T07:36:57;25.10;47.00
1135;DHT22;556;53.550;10.048;2022-07-30T07:39:24;25.30;46.80
1135;DHT22;556;53.550;10.048;2022-07-30T07:41:52;25.40;46.60
1135;DHT22;556;53.550;10.048;2022-07-30T07:44:22;25.50;46.40
1135;DHT22;556;53.550;10.048;2022-07-30T07:46:50;25.60;45.90
1135;DHT22;556;53.550;10.048;2022-07-30T07:49:18;25.70;46.40
1135;DHT22;556;53.550;10.048;2022-07-30T07:51:50;25.70;46.20
1135;DHT22;556;53.550;10.048;2022-07-30T07:54:18;25.80;46.20
1135;DHT22;556;53.550;10.048;2022-07-30T07:56:47;25.90;46.10
1135;DHT22;556;53.550;10.048;2022-07-30T07:59:16;26.00;46.00
1135;DHT22;556;53.550;10.048;2022-07-30T08:01:43;26.00;45.90
1135;DHT22;556;53.550;10.048;2022-07-30T08:04:32;26.20;45.80
1135;DHT22;556;53.550;10.048;2022-07-30T08:07:26;26.20;45.00
1135;DHT22;556;53.550;10.048;2022-07-30T08:10:12;26.30;44.90
1135;DHT22;556;53.550;10.048;2022-07-30T08:12:59;26.50;45.20
1135;DHT22;556;53.550;10.048;2022-07-30T08:15:47;26.60;45.00
1135;DHT22;556;53.550;10.048;2022-07-30T08:18:53;26.70;44.40
1135;DHT22;556;53.550;10.048;2022-07-30T08:21:32;26.90;44.80
1135;DHT22;556;53.550;10.048;2022-07-30T08:23:59;27.10;44.50
1135;DHT22;556;53.550;10.048;2022-07-30T08:26:26;27.20;44.30
1135;DHT22;556;53.550;10.048;2022-07-30T08:28:54;27.30;44.20
1135;DHT22;556;53.550;10.048;2022-07-30T08:31:21;27.40;43.90
1135;DHT22;556;53.550;10.048;2022-07-30T08:33:48;27.60;43.70
1135;DHT22;556;53.550;10.048;2022-07-30T08:36:16;27.70;43.30
1135;DHT22;556;53.550;10.048;2022-07-30T08:38:45;27.60;43.00
1135;DHT22;556;53.550;10.048;2022-07-30T08:41:12;27.50;42.90
1135;DHT22;556;53.550;10.048;2022-07-30T08:43:44;27.50;42.90
1135;DHT22;556;53.550;10.048;2022-07-30T08:46:13;27.50;42.90
1135;DHT22;556;53.550;10.048;2022-07-30T08:48:53;27.50;42.20
1135;DHT22;556;53.550;10.048;2022-07-30T08:51:21;27.50;42.70
1135;DHT22;556;53.550;10.048;2022-07-30T08:54:19;27.60;42.50
1135;DHT22;556;53.550;10.048;2022-07-30T08:56:47;27.80;43.00
1135;DHT22;556;53.550;10.048;2022-07-30T08:59:16;27.70;42.30
1135;DHT22;556;53.550;10.048;2022-07-30T09:01:44;27.80;42.20
1135;DHT22;556;53.550;10.048;2022-07-30T09:04:11;27.80;42.00
1135;DHT22;556;53.550;10.048;2022-07-30T09:06:40;27.70;42.00
1135;DHT22;556;53.550;10.048;2022-07-30T09:09:07;27.60;41.90
1135;DHT22;556;53.550;10.048;2022-07-30T09:11:35;27.50;41.80
1135;DHT22;556;53.550;10.048;2022-07-30T09:14:07;27.60;41.80
1135;DHT22;556;53.550;10.048;2022-07-30T09:16:35;27.60;41.80
1135;DHT22;556;53.550;10.048;2022-07-30T09:19:11;27.50;41.80
1135;DHT22;556;53.550;10.048;2022-07-30T09:21:39;27.50;41.90
1135;DHT22;556;53.550;10.048;2022-07-30T09:24:19;27.60;41.80
1135;DHT22;556;53.550;10.048;2022-07-30T09:26:57;27.90;41.60
1135;DHT22;556;53.550;10.048;2022-07-30T09:29:43;28.10;41.30
1135;DHT22;556;53.550;10.048;2022-07-30T09:32:46;28.30;41.70
1135;DHT22;556;53.550;10.048;2022-07-30T09:35:41;28.40;41.10
1135;DHT22;556;53.550;10.048;2022-07-30T09:38:09;28.60;40.90
1135;DHT22;556;53.550;10.048;2022-07-30T09:40:52;28.60;40.70
1135;DHT22;556;53.550;10.048;2022-07-30T09:43:45;28.60;40.70
1135;DHT22;556;53.550;10.048;2022-07-30T09:46:20;28.70;40.70
1135;DHT22;556;53.550;10.048;2022-07-30T09:48:47;28.80;40.50
1135;DHT22;556;53.550;10.048;2022-07-30T09:51:14;29.00;40.50
1135;DHT22;556;53.550;10.048;2022-07-30T09:53:55;29.00;40.40
1135;DHT22;556;53.550;10.048;2022-07-30T09:56:26;28.90;40.60
1135;DHT22;556;53.550;10.048;2022-07-30T09:58:55;29.00;40.60
1135;DHT22;556;53.550;10.048;2022-07-30T10:01:22;29.00;39.90
1135;DHT22;556;53.550;10.048;2022-07-30T10:03:53;29.20;40.30
1135;DHT22;556;53.550;10.048;2022-07-30T10:06:39;29.20;40.20
1135;DHT22;556;53.550;10.048;2022-07-30T10:09:23;29.00;40.30
1135;DHT22;556;53.550;10.048;2022-07-30T10:11:52;29.10;40.50
1135;DHT22;556;53.550;10.048;2022-07-30T10:14:22;29.20;40.60
1135;DHT22;556;53.550;10.048;2022-07-30T10:16:50;29.40;39.90
1135;DHT22;556;53.550;10.048;2022-07-30T10:19:19;29.50;40.30
1135;DHT22;556;53.550;10.048;2022-07-30T10:22:15;29.70;40.60
1135;DHT22;556;53.550;10.048;2022-07-30T10:25:01;29.70;40.00
1135;DHT22;556;53.550;10.048;2022-07-30T10:27:48;29.90;39.80
1135;DHT22;556;53.550;10.048;2022-07-30T10:30:29;29.90;39.70
1135;DHT22;556;53.550;10.048;2022-07-30T10:32:58;29.80;39.00
1135;DHT22;556;53.550;10.048;2022-07-30T10:35:25;30.30;39.30
1135;DHT22;556;53.550;10.048;2022-07-30T10:37:53;30.50;39.00
1135;DHT22;556;53.550;10.048;2022-07-30T10:40:27;30.50;38.90
1135;DHT22;556;53.550;10.048;2022-07-30T10:43:20;30.50;38.90
1135;DHT22;556;53.550;10.048;2022-07-30T10:45:57;30.30;39.00
1135;DHT22;556;53.550;10.048;2022-07-30T10:48:32;30.10;39.00
1135;DHT22;556;53.550;10.048;2022-07-30T10:51:00;30.10;39.00
1135;DHT22;556;53.550;10.048;2022-07-30T10:53:37;29.90;39.10
1135;DHT22;556;53.550;10.048;2022-07-30T10:56:13;29.90;38.60
1135;DHT22;556;53.550;10.048;2022-07-30T10:59:03;29.90;38.90
1135;DHT22;556;53.550;10.048;2022-07-30T11:02:08;29.80;39.50
1135;DHT22;556;53.550;10.048;2022-07-30T11:04:36;29.70;38.40
1135;DHT22;556;53.550;10.048;2022-07-30T11:07:28;29.70;39.00
1135;DHT22;556;53.550;10.048;2022-07-30T11:09:57;29.60;39.10
1135;DHT22;556;53.550;10.048;2022-07-30T11:12:53;29.50;39.10
1135;DHT22;556;53.550;10.048;2022-07-30T11:15:21;29.50;39.00
1135;DHT22;556;53.550;10.048;2022-07-30T11:18:01;29.40;39.00
1135;DHT22;556;53.550;10.048;2022-07-30T11:20:30;29.40;39.00
1135;DHT22;556;53.550;10.048;2022-07-30T11:23:09;29.50;38.90
1135;DHT22;556;53.550;10.048;2022-07-30T11:25:40;29.40;38.90
1135;DHT22;556;53.550;10.048;2022-07-30T11:28:35;29.50;38.80
1135;DHT22;556;53.550;10.048;2022-07-30T11:31:04;29.50;38.70
1135;DHT22;556;53.550;10.048;2022-07-30T11:33:51;29.50;38.60
1135;DHT22;556;53.550;10.048;2022-07-30T11:36:19;29.60;38.60
1135;DHT22;556;53.550;10.048;2022-07-30T11:38:56;29.70;38.50
1135;DHT22;556;53.550;10.048;2022-07-30T11:41:24;29.80;38.40
1135;DHT22;556;53.550;10.048;2022-07-30T11:44:25;30.00;38.30
1135;DHT22;556;53.550;10.048;2022-07-30T11:46:52;30.00;38.10
1135;DHT22;556;53.550;10.048;2022-07-30T11:49:21;30.10;38.20
1135;DHT22;556;53.550;10.048;2022-07-30T11:51:48;30.10;38.10
1135;DHT22;556;53.550;10.048;2022-07-30T11:54:16;30.40;37.90
1135;DHT22;556;53.550;10.048;2022-07-30T11:56:51;30.50;37.70
1135;DHT22;556;53.550;10.048;2022-07-30T11:59:18;31.00;37.40
1135;DHT22;556;53.550;10.048;2022-07-30T12:01:49;31.40;37.10
1135;DHT22;556;53.550;10.048;2022-07-30T12:04:16;31.90;36.70
1135;DHT22;556;53.550;10.048;2022-07-30T12:06:46;32.30;36.20
1135;DHT22;556;53.550;10.048;2022-07-30T12:09:20;32.60;36.00
1135;DHT22;556;53.550;10.048;2022-07-30T12:11:48;32.90;35.60
1135;DHT22;556;53.550;10.048;2022-07-30T12:14:15;33.20;35.50
1135;DHT22;556;53.550;10.048;2022-07-30T12:16:48;33.60;35.20
1135;DHT22;556;53.550;10.048;2022-07-30T12:19:16;33.70;34.90
1135;DHT22;556;53.550;10.048;2022-07-30T12:21:44;33.70;34.90
1135;DHT22;556;53.550;10.048;2022-07-30T12:24:11;33.80;34.70
1135;DHT22;556;53.550;10.048;2022-07-30T12:26:39;33.60;34.70
1135;DHT22;556;53.550;10.048;2022-07-30T12:29:08;33.60;35.30
1135;DHT22;556;53.550;10.048;2022-07-30T12:31:38;33.60;34.60
1135;DHT22;556;53.550;10.048;2022-07-30T12:34:18;33.90;34.30
1135;DHT22;556;53.550;10.048;2022-07-30T12:36:46;34.10;33.90
1135;DHT22;556;53.550;10.048;2022-07-30T12:39:18;34.00;33.80
1135;DHT22;556;53.550;10.048;2022-07-30T12:41:47;34.00;34.20
1135;DHT22;556;53.550;10.048;2022-07-30T12:44:35;34.20;33.60
1135;DHT22;556;53.550;10.048;2022-07-30T12:47:03;34.20;33.30
1135;DHT22;556;53.550;10.048;2022-07-30T12:49:31;34.40;33.30
1135;DHT22;556;53.550;10.048;2022-07-30T12:51:59;34.50;33.10
1135;DHT22;556;53.550;10.048;2022-07-30T12:54:27;34.40;33.10
1135;DHT22;556;53.550;10.048;2022-07-30T12:56:56;34.60;33.00
1135;DHT22;556;53.550;10.048;2022-07-30T12:59:24;34.40;32.40
1135;DHT22;556;53.550;10.048;2022-07-30T13:01:52;34.30;32.90
1135;DHT22;556;53.550;10.048;2022-07-30T13:04:20;34.50;32.70
1135;DHT22;556;53.550;10.048;2022-07-30T13:07:05;34.60;32.50
1135;DHT22;556;53.550;10.048;2022-07-30T13:09:33;35.00;32.20
1135;DHT22;556;53.550;10.048;2022-07-30T13:12:01;35.10;32.20
1135;DHT22;556;53.550;10.048;2022-07-30T13:14:28;35.60;31.90
1135;DHT22;556;53.550;10.048;2022-07-30T13:16:55;35.90;31.60
1135;DHT22;556;53.550;10.048;2022-07-30T13:19:23;35.90;31.40
1135;DHT22;556;53.550;10.048;2022-07-30T13:21:50;35.90;31.40
1135;DHT22;556;53.550;10.048;2022-07-30T13:24:19;35.90;31.40
1135;DHT22;556;53.550;10.048;2022-07-30T13:26:46;36.10;31.30
1135;DHT22;556;53.550;10.048;2022-07-30T13:29:14;36.30;31.00
1135;DHT22;556;53.550;10.048;2022-07-30T13:31:41;36.60;30.90
1135;DHT22;556;53.550;10.048;2022-07-30T13:34:08;37.30;30.80
1135;DHT22;556;53.550;10.048;2022-07-30T13:36:35;38.30;30.40
1135;DHT22;556;53.550;10.048;2022-07-30T13:39:02;39.30;30.00
1135;DHT22;556;53.550;10.048;2022-07-30T13:43:58;41.70;28.60
1135;DHT22;556;53.550;10.048;2022-07-30T13:46:25;42.70;28.40
1135;DHT22;556;53.550;10.048;2022-07-30T13:48:53;43.70;27.80
1135;DHT22;556;53.550;10.048;2022-07-30T13:51:20;44.10;27.20
1135;DHT22;556;53.550;10.048;2022-07-30T13:53:47;44.30;26.90
1135;DHT22;556;53.550;10.048;2022-07-30T13:56:14;44.50;26.70
1135;DHT22;556;53.550;10.048;2022-07-30T13:58:42;44.80;26.40
1135;DHT22;556;53.550;10.048;2022-07-30T14:01:09;44.80;26.10
1135;DHT22;556;53.550;10.048;2022-07-30T14:03:37;44.50;26.10
1135;DHT22;556;53.550;10.048;2022-07-30T14:06:04;44.10;26.10
1135;DHT22;556;53.550;10.048;2022-07-30T14:08:31;43.90;26.10
1135;DHT22;556;53.550;10.048;2022-07-30T14:10:58;43.50;26.10
1135;DHT22;556;53.550;10.048;2022-07-30T14:13:25;43.00;26.20
1135;DHT22;556;53.550;10.048;2022-07-30T14:15:54;42.60;26.30
1135;DHT22;556;53.550;10.048;2022-07-30T14:18:21;42.40;26.30
1135;DHT22;556;53.550;10.048;2022-07-30T14:20:48;42.00;26.30
1135;DHT22;556;53.550;10.048;2022-07-30T14:23:17;42.00;26.40
1135;DHT22;556;53.550;10.048;2022-07-30T14:25:44;41.70;26.40
1135;DHT22;556;53.550;10.048;2022-07-30T14:28:13;41.60;26.20
1135;DHT22;556;53.550;10.048;2022-07-30T14:30:40;41.60;26.00
1135;DHT22;556;53.550;10.048;2022-07-30T14:33:09;41.80;25.90
1135;DHT22;556;53.550;10.048;2022-07-30T14:35:36;42.20;25.70
1135;DHT22;556;53.550;10.048;2022-07-30T14:38:03;42.30;25.60
1135;DHT22;556;53.550;10.048;2022-07-30T14:40:30;42.40;25.50
1135;DHT22;556;53.550;10.048;2022-07-30T14:42:57;42.60;25.50
1135;DHT22;556;53.550;10.048;2022-07-30T14:45:24;42.80;25.40
1135;DHT22;556;53.550;10.048;2022-07-30T14:47:52;43.00;25.20
1135;DHT22;556;53.550;10.048;2022-07-30T14:50:20;43.40;25.10
1135;DHT22;556;53.550;10.048;2022-07-30T14:52:47;43.60;24.90
1135;DHT22;556;53.550;10.048;2022-07-30T14:55:15;43.60;25.30
1135;DHT22;556;53.550;10.048;2022-07-30T14:57:42;43.60;24.60
1135;DHT22;556;53.550;10.048;2022-07-30T15:00:10;43.60;24.60
1135;DHT22;556;53.550;10.048;2022-07-30T15:02:37;43.40;24.50
1135;DHT22;556;53.550;10.048;2022-07-30T15:05:07;43.30;24.60
1135;DHT22;556;53.550;10.048;2022-07-30T15:07:35;43.50;24.50
1135;DHT22;556;53.550;10.048;2022-07-30T15:10:04;43.30;24.40
1135;DHT22;556;53.550;10.048;2022-07-30T15:12:32;42.60;24.50
1135;DHT22;556;53.550;10.048;2022-07-30T15:14:59;41.60;24.80
1135;DHT22;556;53.550;10.048;2022-07-30T15:17:26;40.30;25.30
1135;DHT22;556;53.550;10.048;2022-07-30T15:19:53;39.50;25.80
1135;DHT22;556;53.550;10.048;2022-07-30T15:22:20;38.60;26.20
1135;DHT22;556;53.550;10.048;2022-07-30T15:24:48;37.80;26.50
1135;DHT22;556;53.550;10.048;2022-07-30T15:27:15;37.10;26.90
1135;DHT22;556;53.550;10.048;2022-07-30T15:29:43;36.30;27.10
1135;DHT22;556;53.550;10.048;2022-07-30T15:32:10;35.80;27.50
1135;DHT22;556;53.550;10.048;2022-07-30T15:34:37;35.40;27.60
1135;DHT22;556;53.550;10.048;2022-07-30T15:37:04;35.10;27.70
1135;DHT22;556;53.550;10.048;2022-07-30T15:39:31;34.90;27.90
1135;DHT22;556;53.550;10.048;2022-07-30T15:42:01;34.60;27.90
1135;DHT22;556;53.550;10.048;2022-07-30T15:44:30;34.40;28.20
1135;DHT22;556;53.550;10.048;2022-07-30T15:46:57;34.30;28.20
1135;DHT22;556;53.550;10.048;2022-07-30T15:49:25;34.10;28.20
1135;DHT22;556;53.550;10.048;2022-07-30T15:51:52;34.30;28.30
1135;DHT22;556;53.550;10.048;2022-07-30T15:54:20;34.50;28.20
1135;DHT22;556;53.550;10.048;2022-07-30T15:56:48;34.90;28.20
1135;DHT22;556;53.550;10.048;2022-07-30T15:59:17;35.10;28.10
1135;DHT22;556;53.550;10.048;2022-07-30T16:01:45;35.40;28.10
1135;DHT22;556;53.550;10.048;2022-07-30T16:04:13;35.50;28.00
1135;DHT22;556;53.550;10.048;2022-07-30T16:06:40;35.80;28.00
1135;DHT22;556;53.550;10.048;2022-07-30T16:09:07;36.10;27.90
1135;DHT22;556;53.550;10.048;2022-07-30T16:11:34;36.70;27.80
1135;DHT22;556;53.550;10.048;2022-07-30T16:14:02;37.50;27.60
1135;DHT22;556;53.550;10.048;2022-07-30T16:16:30;38.50;27.30
1135;DHT22;556;53.550;10.048;2022-07-30T16:18:57;39.10;26.90
1135;DHT22;556;53.550;10.048;2022-07-30T16:21:24;39.50;26.50
1135;DHT22;556;53.550;10.048;2022-07-30T16:23:51;40.10;26.20
1135;DHT22;556;53.550;10.048;2022-07-30T16:26:19;40.50;25.80
1135;DHT22;556;53.550;10.048;2022-07-30T16:28:46;40.20;25.20
1135;DHT22;556;53.550;10.048;2022-07-30T16:31:13;40.20;25.70
1135;DHT22;556;53.550;10.048;2022-07-30T16:33:41;40.40;25.50